Nathaniel B. Palmer — WBP3210 — position and weather

sailwx.info

Track history (hours):
 
Tides and Currents Weather Stations Pressure Air Temp Water Temp Dewpoint Dewpoint Depression Visibility Wind Speed Wind Dir Waves Ship Positions

Oceanographic research ship Nathaniel B. Palmer (USA)

Contact: Ethan Norris, ethan.norris.contractor@usap.gov

Detailed information on ship capabilities available from University of Delaware's Ocean Information Center and ARCUS's ALIAS (Arctic Logistics Information and Support) project.

Owner: OFFSHORE SERVICE VESSELS, GALLIANO, LA. More information available from US FCC via Universal Licensing System and Coast Guard Vessel Documentation Center.

Last reported at 2017-Aug-20 03:00 UTC. Time now 2017-Aug-20 04:03 UTC.
Position S 17°30' W 149°30'.

Type: Other ship. MMSI: 366610000.

Wind from 260 at 2 knots

Barometer 1014.8 mb
Air temperature 25.8 ° C
Water temperature -0.0 ° C

Date/timePositionNaut miles runAvg speedWind from/ knotsBaromVisibWave heightAir tempDewpointWater temp
2017-Aug-20 03:00S 17°30' W 149°30'0 0.0 260 / 21014.8 25.8 -0.0
2017-Aug-20 02:00S 17°30' W 149°30'0 0.0 280 / 61014.4 26.1 -0.0
2017-Aug-20 01:00S 17°30' W 149°30'0 0.0 270 / 71014.1 25.9 -0.0
2017-Aug-20 00:00S 17°30' W 149°30'0 0.0 280 / 71014.7 26.2 -0.0
2017-Aug-19 23:00S 17°30' W 149°30'0 0.0 060 / 71015.2 26.4 -0.0
2017-Aug-19 22:00S 17°30' W 149°30'0 0.0 050 / 81016.0 25.9 -0.0
2017-Aug-19 21:00S 17°30' W 149°30'0 0.0 060 / 41016.6 25.4 -0.0
2017-Aug-19 20:00S 17°30' W 149°30'0 0.0 010 / 61016.7 25.6 -0.0
2017-Aug-19 19:00S 17°30' W 149°30'0 0.0 090 / 41016.4 24.6 -0.0
2017-Aug-19 18:00S 17°30' W 149°30'0 0.0 110 / 41016.2 23.5 -0.0
2017-Aug-19 17:00S 17°30' W 149°30'0 0.0 150 / 51015.7 23.0 -0.0
2017-Aug-19 16:00S 17°30' W 149°30'0 0.0 140 / 41015.0 22.6 -0.0
2017-Aug-19 15:00S 17°30' W 149°30'0 0.0 140 / 41014.7 22.3 -0.0
2017-Aug-19 14:00S 17°30' W 149°30'0 0.0 140 / 31014.6 22.4 -0.0
2017-Aug-19 13:00S 17°30' W 149°30'0 0.0 150 / 41014.6 22.8 -0.0
2017-Aug-19 12:00S 17°30' W 149°30'0 0.0 150 / 41015.1 22.8 -0.0
2017-Aug-19 11:00S 17°30' W 149°30'0 0.0 150 / 41015.5 22.6 -0.0
2017-Aug-19 10:00S 17°30' W 149°30'0 0.0 140 / 31016.0 22.8 -0.0
2017-Aug-19 09:00S 17°30' W 149°30'0 0.0 140 / 41016.7 23.0 -0.0
2017-Aug-19 08:00S 17°30' W 149°30'0 0.0 140 / 41016.9 23.4 -0.0
2017-Aug-19 07:00S 17°30' W 149°30'0 0.0 140 / 31016.8 23.6 -0.0
2017-Aug-19 06:00S 17°30' W 149°30'0 0.0 120 / 31016.4 24.0 -0.0
2017-Aug-19 05:00S 17°30' W 149°30'0 0.0 140 / 31015.6 24.1 -0.0
2017-Aug-19 04:00S 17°30' W 149°30'0 0.0 050 / 51015.4 25.0 -0.0
2017-Aug-19 03:00S 17°30' W 149°30'0 0.0 280 / 61015.3 25.8 -0.0
2017-Aug-19 02:00S 17°30' W 149°30'0 0.0 240 / 61015.3 25.4 -0.0
2017-Aug-19 01:00S 17°30' W 149°30'0 0.0 300 / 51015.6 26.2 -0.0
2017-Aug-19 00:00S 17°30' W 149°30'0 0.0 250 / 61016.9 25.4 -0.0
2017-Aug-18 23:00S 17°30' W 149°30'0 0.0 210 / 21018.7 25.2 -0.0
2017-Aug-18 22:00S 17°30' W 149°30'0 0.0 210 / 21018.7 25.2 -0.0
2017-Aug-18 21:00S 17°30' W 149°30'0 0.0 310 / 51019.0 25.7 -0.0
2017-Aug-18 20:00S 17°30' W 149°30'0 0.0 010 / 31019.8 25.2 -0.0
2017-Aug-18 19:00S 17°30' W 149°30'0 0.0 120 / 31019.8 23.7 -0.0
2017-Aug-18 18:00S 17°30' W 149°30'0 0.0 120 / 31019.1 23.1 -0.0
2017-Aug-18 17:00S 17°30' W 149°30'0 0.0 130 / 41018.6 22.2 -0.0
2017-Aug-18 16:00S 17°30' W 149°30'0 0.0 130 / 41017.8 22.2 -0.0
2017-Aug-18 15:00S 17°30' W 149°30'0 0.0 140 / 51017.1 22.3 -0.0
2017-Aug-18 14:00S 17°30' W 149°30'0 0.0 130 / 31017.0 22.3 -0.0
2017-Aug-18 13:00S 17°30' W 149°30'0 0.0 120 / 41017.2 22.2 -0.0
2017-Aug-18 12:00S 17°30' W 149°30'0 0.0 130 / 41017.6 21.9 -0.0
2017-Aug-18 11:00S 17°30' W 149°30'0 0.0 120 / 31017.9 21.7 -0.0
2017-Aug-18 10:00S 17°30' W 149°30'0 0.0 120 / 31018.2 21.8 -0.0
2017-Aug-18 09:00S 17°30' W 149°30'0 0.0 130 / 31018.3 22.2 -0.0
2017-Aug-18 08:00S 17°30' W 149°30'0 0.0 140 / 31018.2 22.1 -0.0
2017-Aug-18 07:00S 17°30' W 149°30'0 0.0 120 / 31018.0 22.6 -0.0
2017-Aug-18 06:00S 17°30' W 149°30'0 0.0 110 / 41017.4 23.5 -0.0
2017-Aug-18 05:00S 17°30' W 149°30'0 0.0 080 / 41016.7 24.8 -0.0
2017-Aug-18 04:00S 17°30' W 149°30'0 0.0 330 / 31016.1 26.0 -0.0
2017-Aug-18 03:00S 17°30' W 149°30'0 0.0 340 / 61015.7 26.5 -0.0
2017-Aug-18 02:00S 17°30' W 149°30'0 0.0 260 / 81015.2 26.2 -0.0
2017-Aug-18 01:00S 17°30' W 149°30'0 0.0 260 / 61015.5 26.3 -0.0
2017-Aug-18 00:00S 17°30' W 149°30'0 0.0 290 / 91016.3 27.0 -0.0
2017-Aug-17 23:00S 17°30' W 149°30'17631763.5 270 / 91017.0 25.7 -0.0
2017-Aug-17 22:00S 13°54' W 119°12'1763881.7 280 / 8810.8 20.4 -0.0
2017-Aug-17 20:00S 17°30' W 149°30'0 0.0 270 / 51019.0 25.9 26.9
2017-Aug-17 18:00S 17°30' W 149°30'0 0.0 120 / 41019.1 22.9 26.9
2017-Aug-17 17:00S 17°30' W 149°30'6 6.0 130 / 61018.7 21.8 26.9
2017-Aug-17 16:00S 17°24' W 149°30'6 5.7 130 / 131018.0 24.0 26.9
2017-Aug-17 15:00S 17°24' W 149°24'1111.5 130 / 281017.7 24.8 26.9
2017-Aug-17 14:00S 17°24' W 149°12'8 8.3 120 / 281018.0 24.9 26.9
2017-Aug-17 13:00S 17°30' W 149°06'8 8.3 120 / 251018.1 24.4 26.9
2017-Aug-17 12:00S 17°36' W 149°00'1313.3 120 / 261018.3 24.4 26.9
2017-Aug-17 11:00S 17°48' W 148°54'6 6.0 120 / 251018.5 24.8 26.9
2017-Aug-17 10:00S 17°54' W 148°54'1212.0 120 / 231019.0 24.5 26.9
2017-Aug-17 09:00S 18°06' W 148°54'6 6.0 110 / 221019.2 24.8 26.9
2017-Aug-17 08:00S 18°12' W 148°54'1212.0 120 / 251019.1 25.0 26.8
2017-Aug-17 07:00S 18°24' W 148°54'6 6.0 120 / 261019.0 24.8 26.6
2017-Aug-17 06:00S 18°30' W 148°54'1212.0 120 / 271018.9 24.5 26.1
2017-Aug-17 05:00S 18°42' W 148°54'1212.0 120 / 261018.7 24.3 26.3
2017-Aug-17 04:00S 18°54' W 148°54'6 6.0 120 / 211018.5 23.5 25.9
2017-Aug-17 03:00S 19°00' W 148°54'1212.0 130 / 221018.4 23.8 25.6
2017-Aug-17 02:00S 19°12' W 148°54'6 6.0 120 / 241018.4 24.1 25.4
2017-Aug-17 01:00S 19°18' W 148°54'1212.0 120 / 251018.6 23.6 25.3
2017-Aug-17 00:00S 19°30' W 148°54'1212.0 120 / 251019.1 23.3 25.1
2017-Aug-16 23:00S 19°42' W 148°54'6 6.0 120 / 251019.7 23.2 25.3
2017-Aug-16 22:00S 19°48' W 148°54'1212.0 120 / 251020.5 23.0 25.5
2017-Aug-16 21:00S 20°00' W 148°54'6 6.0 120 / 281020.9 22.9 25.0
2017-Aug-16 20:00S 20°06' W 148°54'1212.0 120 / 281021.3 23.0 24.9
2017-Aug-16 19:00S 20°18' W 148°54'1212.0 130 / 281021.2 22.6 24.7
2017-Aug-16 18:00S 20°30' W 148°54'6 6.0 120 / 261021.0 22.7 24.8
2017-Aug-16 17:00S 20°36' W 148°54'1212.0 120 / 271020.5 22.4 24.9
2017-Aug-16 16:00S 20°48' W 148°54'6 6.0 130 / 281020.2 22.2 24.5
2017-Aug-16 15:00S 20°54' W 148°54'1212.0 130 / 281019.9 22.1 24.4
2017-Aug-16 14:00S 21°06' W 148°54'1212.0 130 / 271019.9 22.3 24.7
2017-Aug-16 13:00S 21°18' W 148°54'6 6.0 130 / 291020.0 22.3 24.6
2017-Aug-16 12:00S 21°24' W 148°54'1212.0 130 / 281020.6 22.2 24.3
2017-Aug-16 11:00S 21°36' W 148°54'6 6.0 130 / 271020.9 22.1 24.1
2017-Aug-16 10:00S 21°42' W 148°54'1212.0 130 / 281021.1 22.0 24.3
2017-Aug-16 09:00S 21°54' W 148°54'1212.0 130 / 291021.2 22.0 24.7
2017-Aug-16 08:00S 22°06' W 148°54'6 6.0 130 / 251021.6 21.6 24.6
2017-Aug-16 07:00S 22°12' W 148°54'1212.0 130 / 261021.9 21.6 24.3
2017-Aug-16 06:00S 22°24' W 148°54'1212.0 130 / 261021.8 21.8 24.0
2017-Aug-16 05:00S 22°36' W 148°54'6 6.0 130 / 261021.4 21.7 24.0
2017-Aug-16 04:00S 22°42' W 148°54'1212.0 130 / 261021.1 21.7 24.0
2017-Aug-16 03:00S 22°54' W 148°54'6 6.0 130 / 271020.6 21.6 23.8
2017-Aug-16 02:00S 23°00' W 148°54'1212.0 130 / 281020.5 21.3 23.2
2017-Aug-16 01:00S 23°12' W 148°54'6 6.0 130 / 281021.0 21.3 23.2
2017-Aug-16 00:00S 23°18' W 148°54'1212.0 130 / 271021.5 21.4 23.3
2017-Aug-15 23:00S 23°30' W 148°54'1212.0 140 / 271022.3 21.3 23.4
2017-Aug-15 22:00S 23°42' W 148°54'6 6.0 140 / 271023.1 21.2 22.9
2017-Aug-15 21:00S 23°48' W 148°54'1212.0 140 / 261023.6 21.3 22.8
2017-Aug-15 20:00S 24°00' W 148°54'1212.0 130 / 261024.1 21.2 22.7
2017-Aug-15 19:00S 24°12' W 148°54'6 6.0 130 / 261024.1 21.0 22.8
2017-Aug-15 18:00S 24°18' W 148°54'1212.0 140 / 271023.8 20.7 22.8
2017-Aug-15 17:00S 24°30' W 148°54'1212.0 140 / 261023.1 20.4 22.9
2017-Aug-15 16:00S 24°42' W 148°54'6 6.0 130 / 271022.4 20.2 22.8
2017-Aug-15 15:00S 24°48' W 148°54'1212.0 130 / 251022.0 20.2 22.5
2017-Aug-15 14:00S 25°00' W 148°54'6 6.0 130 / 251022.0 20.1 22.0
2017-Aug-15 13:00S 25°06' W 148°54'1212.0 130 / 241022.7 20.1 21.5
2017-Aug-15 12:00S 25°18' W 148°54'1212.0 130 / 231022.9 19.7 21.2
2017-Aug-15 11:00S 25°30' W 148°54'6 6.0 130 / 241022.7 19.2 21.1
2017-Aug-15 10:00S 25°36' W 148°54'1212.0 120 / 251023.0 19.5 21.1
2017-Aug-15 09:00S 25°48' W 148°54'1212.0 120 / 241023.2 19.5 21.0
2017-Aug-15 08:00S 26°00' W 148°54'6 6.0 130 / 241023.3 19.2 21.0
2017-Aug-15 07:00S 26°06' W 148°54'1212.0 140 / 241023.2 18.9 20.9
2017-Aug-15 06:00S 26°18' W 148°54'1212.0 140 / 251023.1 19.0 20.8
2017-Aug-15 05:00S 26°30' W 148°54'6 6.0 140 / 251022.8 19.1 21.0
2017-Aug-15 04:00S 26°36' W 148°54'1212.0 140 / 241022.5 19.0 21.4
2017-Aug-15 03:00S 26°48' W 148°54'6 6.0 140 / 251022.1 18.9 21.1
2017-Aug-15 02:00S 26°54' W 148°54'1212.0 140 / 251022.0 18.9 21.2
2017-Aug-15 01:00S 27°06' W 148°54'1212.0 140 / 241022.0 18.8 21.1
2017-Aug-15 00:00S 27°18' W 148°54'6 6.0 140 / 231022.1 18.6 21.1
2017-Aug-14 23:00S 27°24' W 148°54'6 6.0 140 / 241022.3 18.5 20.9
2017-Aug-14 22:00S 27°30' W 148°54'1212.0 140 / 231022.7 18.4 20.1
2017-Aug-14 21:00S 27°42' W 148°54'1212.0 140 / 231022.8 18.3 20.3
2017-Aug-14 20:00S 27°54' W 148°54'6 6.0 130 / 241022.7 17.9 20.0
2017-Aug-14 19:00S 28°00' W 148°54'1212.0 130 / 241022.4 17.6 19.4
2017-Aug-14 18:00S 28°12' W 148°54'1212.0 130 / 241021.8 17.6 19.4
2017-Aug-14 17:00S 28°24' W 148°54'6 6.0 130 / 231021.1 17.3 19.3
2017-Aug-14 16:00S 28°30' W 148°54'1212.0 120 / 211020.5 17.5 19.5
2017-Aug-14 15:00S 28°42' W 148°54'6 6.0 120 / 191019.8 17.1 19.5
2017-Aug-14 14:00S 28°48' W 148°54'1212.0 130 / 171019.4 17.1 19.5
2017-Aug-14 13:00S 29°00' W 148°54'1212.0 120 / 171019.4 17.1 19.4
2017-Aug-14 12:00S 29°12' W 148°54'6 6.0 120 / 171019.6 16.9 18.8
2017-Aug-14 11:00S 29°18' W 148°54'1212.0 120 / 161019.9 16.8 19.1
2017-Aug-14 10:00S 29°30' W 148°54'1212.0 110 / 181019.7 16.5 18.8
2017-Aug-14 09:00S 29°42' W 148°54'6 6.0 100 / 201019.6 16.4 18.8
2017-Aug-14 08:00S 29°48' W 148°54'1212.0 120 / 191020.3 16.3 18.4
2017-Aug-14 07:00S 30°00' W 148°54'1212.0 100 / 191020.0 15.9 18.1
2017-Aug-14 06:00S 30°12' W 148°54'6 6.0 100 / 201019.6 15.7 18.1
2017-Aug-14 05:00S 30°18' W 148°54'1212.0 090 / 231018.8 15.4 18.2
2017-Aug-14 04:00S 30°30' W 148°54'1212.0 070 / 211018.7 15.2 18.2
2017-Aug-14 03:00S 30°42' W 148°54'6 6.0 050 / 201018.2 15.7 18.2
2017-Aug-14 02:00S 30°48' W 148°54'1212.0 050 / 211017.6 15.8 18.1
2017-Aug-14 01:00S 31°00' W 148°54'6 6.0 060 / 221017.5 16.0 18.3
2017-Aug-14 00:00S 31°06' W 148°54'1212.0 060 / 211017.9 16.0 18.3
2017-Aug-13 23:00S 31°18' W 148°54'1212.0 060 / 201018.7 15.8 17.4
2017-Aug-13 22:00S 31°30' W 148°54'6 6.0 070 / 201019.7 16.7 17.4
2017-Aug-13 21:00S 31°36' W 148°54'1212.0 060 / 191020.5 16.6 17.5
2017-Aug-13 20:00S 31°48' W 148°54'1212.0 070 / 181020.9 16.3 16.6
2017-Aug-13 19:00S 32°00' W 148°54'6 6.0 070 / 161020.9 16.2 16.2
2017-Aug-13 18:00S 32°06' W 148°54'1212.0 070 / 141020.8 15.8 16.2
2017-Aug-13 17:00S 32°18' W 148°54'6 6.0 060 / 131020.7 15.3 16.2
2017-Aug-13 16:00S 32°24' W 148°54'0 0.0 030 / 141020.7 14.5 16.4
2017-Aug-13 15:00S 32°24' W 148°54'0 0.0 030 / 161020.6 15.1 16.5
2017-Aug-13 14:00S 32°24' W 148°54'0 0.0 030 / 161020.7 15.2 16.5
2017-Aug-13 13:00S 32°24' W 148°54'0 0.0 040 / 151021.0 15.2 16.5
2017-Aug-13 12:00S 32°24' W 148°54'8 7.9 040 / 171021.1 15.1 16.5
2017-Aug-13 11:00S 32°30' W 149°00'1211.8 030 / 181021.7 15.2 16.3
2017-Aug-13 10:00S 32°24' W 149°12'1211.8 030 / 181022.1 15.1 16.1
2017-Aug-13 09:00S 32°30' W 149°24'8 7.9 040 / 181022.1 15.0 16.2
2017-Aug-13 08:00S 32°24' W 149°30'6 6.0 040 / 171022.3 14.9 16.1
2017-Aug-13 07:00S 32°30' W 149°30'0 0.0 060 / 201021.8 14.6 16.1
2017-Aug-13 06:00S 32°30' W 149°30'6 6.0 060 / 201021.8 14.4 16.1
2017-Aug-13 05:00S 32°24' W 149°30'0 0.0 060 / 181022.1 14.3 16.1
2017-Aug-13 04:00S 32°24' W 149°30'1010.1 060 / 151022.4 14.5 16.1
2017-Aug-13 03:00S 32°24' W 149°42'1211.8 050 / 161022.6 14.5 16.2
2017-Aug-13 02:00S 32°30' W 149°54'1010.1 040 / 161022.7 14.6 16.4
2017-Aug-13 01:00S 32°30' W 150°06'5 5.1 040 / 151022.6 14.6 16.7
2017-Aug-13 00:00S 32°30' W 150°12'0 0.0 050 / 141023.2 14.8 16.7
2017-Aug-12 23:00S 32°30' W 150°12'0 0.0 060 / 141024.0 14.5 16.7
2017-Aug-12 22:00S 32°30' W 150°12'6 6.0 050 / 151024.8 14.4 16.7
2017-Aug-12 21:00S 32°24' W 150°12'0 0.0 060 / 151025.2 14.1 16.7
2017-Aug-12 20:00S 32°24' W 150°12'1211.8 070 / 151025.3 14.0 16.7
2017-Aug-12 19:00S 32°30' W 150°24'1010.1 070 / 171025.0 13.9 16.5
2017-Aug-12 18:00S 32°30' W 150°36'1010.1 060 / 161024.8 14.0 16.3
2017-Aug-12 17:00S 32°30' W 150°48'5 5.1 070 / 161024.7 13.9 16.6
2017-Aug-12 16:00S 32°30' W 150°54'6 6.0 070 / 141024.7 13.9 16.7
2017-Aug-12 15:00S 32°24' W 150°54'6 6.0 080 / 151024.2 13.7 16.7
2017-Aug-12 14:00S 32°30' W 150°54'0 0.0 080 / 151024.5 13.7 16.7
2017-Aug-12 13:00S 32°30' W 150°54'6 6.0 080 / 121025.4 13.8 16.7
2017-Aug-12 12:00S 32°24' W 150°54'1211.8 070 / 101026.2 13.9 16.7
2017-Aug-12 11:00S 32°30' W 151°06'1211.8 080 / 111026.6 13.8 16.7
2017-Aug-12 10:00S 32°24' W 151°18'1211.8 060 / 121027.0 13.6 17.1
2017-Aug-12 09:00S 32°30' W 151°30'0 0.0 060 / 111027.4 13.6 17.3
2017-Aug-12 08:00S 32°30' W 151°30'6 6.0 070 / 101027.8 13.5 17.4
2017-Aug-12 07:00S 32°24' W 151°30'6 6.0 070 / 111027.5 13.4 17.4
2017-Aug-12 06:00S 32°30' W 151°30'0 0.0 080 / 111027.5 13.2 17.4
2017-Aug-12 05:00S 32°30' W 151°30'5 5.1 080 / 81027.7 13.2 17.3
2017-Aug-12 04:00S 32°30' W 151°36'5 5.1 080 / 91027.4 13.1 17.3
2017-Aug-12 03:00S 32°30' W 151°42'1010.1 090 / 101026.8 13.1 17.3
2017-Aug-12 02:00S 32°30' W 151°54'1010.1 090 / 131026.4 13.4 17.5
2017-Aug-12 01:00S 32°30' W 152°06'5 2.5 090 / 151026.5 13.4 17.4
2017-Aug-11 23:00S 32°30' W 152°12'0 0.0 090 / 171027.1 13.3 17.1
2017-Aug-11 22:00S 32°30' W 152°12'0 0.0 080 / 131028.3 13.3 17.1
2017-Aug-11 21:00S 32°30' W 152°12'6 6.0 080 / 131028.7 13.3 17.1
2017-Aug-11 20:00S 32°24' W 152°12'16 8.2 090 / 131029.0 13.1 17.1
2017-Aug-11 18:00S 32°30' W 152°30'1010.1 090 / 111029.1 13.0 16.9
2017-Aug-11 17:00S 32°30' W 152°42'1211.8 100 / 101029.0 13.1 16.9
2017-Aug-11 16:00S 32°24' W 152°54'0 0.0 100 / 111028.8 13.1 17.0
2017-Aug-11 15:00S 32°24' W 152°54'0 0.0 100 / 141028.2 13.2 17.0
2017-Aug-11 14:00S 32°24' W 152°54'0 0.0 100 / 101028.5 13.3 17.0
2017-Aug-11 13:00S 32°24' W 152°54'0 0.0 110 / 111028.6 13.2 17.0
2017-Aug-11 12:00S 32°24' W 152°54'1010.1 100 / 121028.7 13.2 16.9
2017-Aug-11 11:00S 32°24' W 153°06'1211.8 100 / 111028.8 13.1 17.0
2017-Aug-11 10:00S 32°30' W 153°18'1010.1 100 / 131028.6 13.1 17.0
2017-Aug-11 09:00S 32°30' W 153°30'6 6.0 110 / 131029.0 13.2 17.0
2017-Aug-11 08:00S 32°24' W 153°30'0 0.0 100 / 131029.3 13.1 17.0
2017-Aug-11 07:00S 32°24' W 153°30'0 0.0 110 / 121029.0 13.1 17.0
2017-Aug-11 06:00S 32°24' W 153°30'0 0.0 110 / 131028.6 13.1 17.0
2017-Aug-11 05:00S 32°24' W 153°30'5 5.1 110 / 141028.1 13.4 17.0
2017-Aug-11 04:00S 32°24' W 153°36'1211.8 130 / 161027.5 13.3 17.1
2017-Aug-11 03:00S 32°30' W 153°48'1211.8 140 / 141027.2 13.6 17.3
2017-Aug-11 02:00S 32°24' W 154°00'1211.8 140 / 151026.9 13.6 17.2
2017-Aug-11 01:00S 32°30' W 154°12'6 6.0 140 / 161026.6 14.2 16.9
2017-Aug-11 00:00S 32°24' W 154°12'0 0.0 150 / 171026.7 14.5 16.9
2017-Aug-10 23:00S 32°24' W 154°12'0 0.0 140 / 191026.8 14.8 16.9
2017-Aug-10 22:00S 32°24' W 154°12'0 0.0 140 / 201027.1 14.9 16.9
2017-Aug-10 21:00S 32°24' W 154°12'1010.1 150 / 191026.9 13.8 16.9
2017-Aug-10 20:00S 32°24' W 154°24'1010.1 210 / 151026.9 15.2 16.9
2017-Aug-10 19:00S 32°24' W 154°36'1010.1 210 / 141026.8 15.2 17.0
2017-Aug-10 18:00S 32°24' W 154°48'5 5.1 210 / 161026.3 15.1 16.8
2017-Aug-10 17:00S 32°24' W 154°54'0 0.0 210 / 181025.7 15.0 16.9
2017-Aug-10 16:00S 32°24' W 154°54'0 0.0 220 / 181025.2 15.1 16.9
2017-Aug-10 15:00S 32°24' W 154°54'0 0.0 220 / 181024.8 15.2 16.9
2017-Aug-10 14:00S 32°24' W 154°54'5 5.1 230 / 171024.6 15.3 16.9
2017-Aug-10 13:00S 32°24' W 155°00'1010.1 230 / 161024.8 15.3 17.0
2017-Aug-10 12:00S 32°24' W 155°12'1211.8 230 / 161025.0 15.3 17.0
2017-Aug-10 11:00S 32°30' W 155°24'5 5.1 230 / 141025.2 15.2 16.9
2017-Aug-10 10:00S 32°30' W 155°30'5 5.1 230 / 131025.4 15.0 16.5
2017-Aug-10 09:00S 32°30' W 155°36'0 0.0 230 / 151025.6 15.0 16.5
2017-Aug-10 08:00S 32°30' W 155°36'0 0.0 230 / 141025.4 14.8 16.5
2017-Aug-10 07:00S 32°30' W 155°36'6 6.0 240 / 131025.0 14.8 16.5
2017-Aug-10 06:00S 32°24' W 155°36'5 5.1 240 / 121024.8 14.8 16.5
2017-Aug-10 05:00S 32°24' W 155°42'1010.1 240 / 131024.8 14.9 16.7
2017-Aug-10 04:00S 32°24' W 155°54'1211.8 230 / 131024.7 14.9 16.8
2017-Aug-10 03:00S 32°30' W 156°06'   230 / 121024.6 15.0 17.4
Track history (hours):
 
Tides and Currents Weather Stations Pressure Air Temp Water Temp Dewpoint Dewpoint Depression Visibility Wind Speed Wind Dir Waves Ship Positions

Oceanographic research ship Nathaniel B. Palmer (USA)

Contact: Ethan Norris, ethan.norris.contractor@usap.gov

Detailed information on ship capabilities available from University of Delaware's Ocean Information Center and ARCUS's ALIAS (Arctic Logistics Information and Support) project.

Owner: OFFSHORE SERVICE VESSELS, GALLIANO, LA. More information available from US FCC via Universal Licensing System and Coast Guard Vessel Documentation Center.

Last reported at 2017-Aug-20 03:00 UTC. Time now 2017-Aug-20 04:03 UTC.
Position S 17°30' W 149°30'.

Type: Other ship. MMSI: 366610000.

Wind from 260 at 2 knots

Barometer 1014.8 mb
Air temperature 25.8 ° C
Water temperature -0.0 ° C

Date/timePositionNaut miles runAvg speedWind from/ knotsBaromVisibWave heightAir tempDewpointWater temp
2017-Aug-20 03:00S 17°30' W 149°30'0 0.0 260 / 21014.8 25.8 -0.0
2017-Aug-20 02:00S 17°30' W 149°30'0 0.0 280 / 61014.4 26.1 -0.0
2017-Aug-20 01:00S 17°30' W 149°30'0 0.0 270 / 71014.1 25.9 -0.0
2017-Aug-20 00:00S 17°30' W 149°30'0 0.0 280 / 71014.7 26.2 -0.0
2017-Aug-19 23:00S 17°30' W 149°30'0 0.0 060 / 71015.2 26.4 -0.0
2017-Aug-19 22:00S 17°30' W 149°30'0 0.0 050 / 81016.0 25.9 -0.0
2017-Aug-19 21:00S 17°30' W 149°30'0 0.0 060 / 41016.6 25.4 -0.0
2017-Aug-19 20:00S 17°30' W 149°30'0 0.0 010 / 61016.7 25.6 -0.0
2017-Aug-19 19:00S 17°30' W 149°30'0 0.0 090 / 41016.4 24.6 -0.0
2017-Aug-19 18:00S 17°30' W 149°30'0 0.0 110 / 41016.2 23.5 -0.0
2017-Aug-19 17:00S 17°30' W 149°30'0 0.0 150 / 51015.7 23.0 -0.0
2017-Aug-19 16:00S 17°30' W 149°30'0 0.0 140 / 41015.0 22.6 -0.0
2017-Aug-19 15:00S 17°30' W 149°30'0 0.0 140 / 41014.7 22.3 -0.0
2017-Aug-19 14:00S 17°30' W 149°30'0 0.0 140 / 31014.6 22.4 -0.0
2017-Aug-19 13:00S 17°30' W 149°30'0 0.0 150 / 41014.6 22.8 -0.0
2017-Aug-19 12:00S 17°30' W 149°30'0 0.0 150 / 41015.1 22.8 -0.0
2017-Aug-19 11:00S 17°30' W 149°30'0 0.0 150 / 41015.5 22.6 -0.0
2017-Aug-19 10:00S 17°30' W 149°30'0 0.0 140 / 31016.0 22.8 -0.0
2017-Aug-19 09:00S 17°30' W 149°30'0 0.0 140 / 41016.7 23.0 -0.0
2017-Aug-19 08:00S 17°30' W 149°30'0 0.0 140 / 41016.9 23.4 -0.0
2017-Aug-19 07:00S 17°30' W 149°30'0 0.0 140 / 31016.8 23.6 -0.0
2017-Aug-19 06:00S 17°30' W 149°30'0 0.0 120 / 31016.4 24.0 -0.0
2017-Aug-19 05:00S 17°30' W 149°30'0 0.0 140 / 31015.6 24.1 -0.0
2017-Aug-19 04:00S 17°30' W 149°30'0 0.0 050 / 51015.4 25.0 -0.0
2017-Aug-19 03:00S 17°30' W 149°30'0 0.0 280 / 61015.3 25.8 -0.0
2017-Aug-19 02:00S 17°30' W 149°30'0 0.0 240 / 61015.3 25.4 -0.0
2017-Aug-19 01:00S 17°30' W 149°30'0 0.0 300 / 51015.6 26.2 -0.0
2017-Aug-19 00:00S 17°30' W 149°30'0 0.0 250 / 61016.9 25.4 -0.0
2017-Aug-18 23:00S 17°30' W 149°30'0 0.0 210 / 21018.7 25.2 -0.0
2017-Aug-18 22:00S 17°30' W 149°30'0 0.0 210 / 21018.7 25.2 -0.0
2017-Aug-18 21:00S 17°30' W 149°30'0 0.0 310 / 51019.0 25.7 -0.0
2017-Aug-18 20:00S 17°30' W 149°30'0 0.0 010 / 31019.8 25.2 -0.0
2017-Aug-18 19:00S 17°30' W 149°30'0 0.0 120 / 31019.8 23.7 -0.0
2017-Aug-18 18:00S 17°30' W 149°30'0 0.0 120 / 31019.1 23.1 -0.0
2017-Aug-18 17:00S 17°30' W 149°30'0 0.0 130 / 41018.6 22.2 -0.0
2017-Aug-18 16:00S 17°30' W 149°30'0 0.0 130 / 41017.8 22.2 -0.0
2017-Aug-18 15:00S 17°30' W 149°30'0 0.0 140 / 51017.1 22.3 -0.0
2017-Aug-18 14:00S 17°30' W 149°30'0 0.0 130 / 31017.0 22.3 -0.0
2017-Aug-18 13:00S 17°30' W 149°30'0 0.0 120 / 41017.2 22.2 -0.0
2017-Aug-18 12:00S 17°30' W 149°30'0 0.0 130 / 41017.6 21.9 -0.0
2017-Aug-18 11:00S 17°30' W 149°30'0 0.0 120 / 31017.9 21.7 -0.0
2017-Aug-18 10:00S 17°30' W 149°30'0 0.0 120 / 31018.2 21.8 -0.0
2017-Aug-18 09:00S 17°30' W 149°30'0 0.0 130 / 31018.3 22.2 -0.0
2017-Aug-18 08:00S 17°30' W 149°30'0 0.0 140 / 31018.2 22.1 -0.0
2017-Aug-18 07:00S 17°30' W 149°30'0 0.0 120 / 31018.0 22.6 -0.0
2017-Aug-18 06:00S 17°30' W 149°30'0 0.0 110 / 41017.4 23.5 -0.0
2017-Aug-18 05:00S 17°30' W 149°30'0 0.0 080 / 41016.7 24.8 -0.0
2017-Aug-18 04:00S 17°30' W 149°30'0 0.0 330 / 31016.1 26.0 -0.0
2017-Aug-18 03:00S 17°30' W 149°30'0 0.0 340 / 61015.7 26.5 -0.0
2017-Aug-18 02:00S 17°30' W 149°30'0 0.0 260 / 81015.2 26.2 -0.0
2017-Aug-18 01:00S 17°30' W 149°30'0 0.0 260 / 61015.5 26.3 -0.0
2017-Aug-18 00:00S 17°30' W 149°30'0 0.0 290 / 91016.3 27.0 -0.0
2017-Aug-17 23:00S 17°30' W 149°30'17631763.5 270 / 91017.0 25.7 -0.0
2017-Aug-17 22:00S 13°54' W 119°12'1763881.7 280 / 8810.8 20.4 -0.0
2017-Aug-17 20:00S 17°30' W 149°30'0 0.0 270 / 51019.0 25.9 26.9
2017-Aug-17 18:00S 17°30' W 149°30'0 0.0 120 / 41019.1 22.9 26.9
2017-Aug-17 17:00S 17°30' W 149°30'6 6.0 130 / 61018.7 21.8 26.9
2017-Aug-17 16:00S 17°24' W 149°30'6 5.7 130 / 131018.0 24.0 26.9
2017-Aug-17 15:00S 17°24' W 149°24'1111.5 130 / 281017.7 24.8 26.9
2017-Aug-17 14:00S 17°24' W 149°12'8 8.3 120 / 281018.0 24.9 26.9
2017-Aug-17 13:00S 17°30' W 149°06'8 8.3 120 / 251018.1 24.4 26.9
2017-Aug-17 12:00S 17°36' W 149°00'1313.3 120 / 261018.3 24.4 26.9
2017-Aug-17 11:00S 17°48' W 148°54'6 6.0 120 / 251018.5 24.8 26.9
2017-Aug-17 10:00S 17°54' W 148°54'1212.0 120 / 231019.0 24.5 26.9
2017-Aug-17 09:00S 18°06' W 148°54'6 6.0 110 / 221019.2 24.8 26.9
2017-Aug-17 08:00S 18°12' W 148°54'1212.0 120 / 251019.1 25.0 26.8
2017-Aug-17 07:00S 18°24' W 148°54'6 6.0 120 / 261019.0 24.8 26.6
2017-Aug-17 06:00S 18°30' W 148°54'1212.0 120 / 271018.9 24.5 26.1
2017-Aug-17 05:00S 18°42' W 148°54'1212.0 120 / 261018.7 24.3 26.3
2017-Aug-17 04:00S 18°54' W 148°54'6 6.0 120 / 211018.5 23.5 25.9
2017-Aug-17 03:00S 19°00' W 148°54'1212.0 130 / 221018.4 23.8 25.6
2017-Aug-17 02:00S 19°12' W 148°54'6 6.0 120 / 241018.4 24.1 25.4
2017-Aug-17 01:00S 19°18' W 148°54'1212.0 120 / 251018.6 23.6 25.3
2017-Aug-17 00:00S 19°30' W 148°54'1212.0 120 / 251019.1 23.3 25.1
2017-Aug-16 23:00S 19°42' W 148°54'6 6.0 120 / 251019.7 23.2 25.3
2017-Aug-16 22:00S 19°48' W 148°54'1212.0 120 / 251020.5 23.0 25.5
2017-Aug-16 21:00S 20°00' W 148°54'6 6.0 120 / 281020.9 22.9 25.0
2017-Aug-16 20:00S 20°06' W 148°54'1212.0 120 / 281021.3 23.0 24.9
2017-Aug-16 19:00S 20°18' W 148°54'1212.0 130 / 281021.2 22.6 24.7
2017-Aug-16 18:00S 20°30' W 148°54'6 6.0 120 / 261021.0 22.7 24.8
2017-Aug-16 17:00S 20°36' W 148°54'1212.0 120 / 271020.5 22.4 24.9
2017-Aug-16 16:00S 20°48' W 148°54'6 6.0 130 / 281020.2 22.2 24.5
2017-Aug-16 15:00S 20°54' W 148°54'1212.0 130 / 281019.9 22.1 24.4
2017-Aug-16 14:00S 21°06' W 148°54'1212.0 130 / 271019.9 22.3 24.7
2017-Aug-16 13:00S 21°18' W 148°54'6 6.0 130 / 291020.0 22.3 24.6
2017-Aug-16 12:00S 21°24' W 148°54'1212.0 130 / 281020.6 22.2 24.3
2017-Aug-16 11:00S 21°36' W 148°54'6 6.0 130 / 271020.9 22.1 24.1
2017-Aug-16 10:00S 21°42' W 148°54'1212.0 130 / 281021.1 22.0 24.3
2017-Aug-16 09:00S 21°54' W 148°54'1212.0 130 / 291021.2 22.0 24.7
2017-Aug-16 08:00S 22°06' W 148°54'6 6.0 130 / 251021.6 21.6 24.6
2017-Aug-16 07:00S 22°12' W 148°54'1212.0 130 / 261021.9 21.6 24.3
2017-Aug-16 06:00S 22°24' W 148°54'1212.0 130 / 261021.8 21.8 24.0
2017-Aug-16 05:00S 22°36' W 148°54'6 6.0 130 / 261021.4 21.7 24.0
2017-Aug-16 04:00S 22°42' W 148°54'1212.0 130 / 261021.1 21.7 24.0
2017-Aug-16 03:00S 22°54' W 148°54'6 6.0 130 / 271020.6 21.6 23.8
2017-Aug-16 02:00S 23°00' W 148°54'1212.0 130 / 281020.5 21.3 23.2
2017-Aug-16 01:00S 23°12' W 148°54'6 6.0 130 / 281021.0 21.3 23.2
2017-Aug-16 00:00S 23°18' W 148°54'1212.0 130 / 271021.5 21.4 23.3
2017-Aug-15 23:00S 23°30' W 148°54'1212.0 140 / 271022.3 21.3 23.4
2017-Aug-15 22:00S 23°42' W 148°54'6 6.0 140 / 271023.1 21.2 22.9
2017-Aug-15 21:00S 23°48' W 148°54'1212.0 140 / 261023.6 21.3 22.8
2017-Aug-15 20:00S 24°00' W 148°54'1212.0 130 / 261024.1 21.2 22.7
2017-Aug-15 19:00S 24°12' W 148°54'6 6.0 130 / 261024.1 21.0 22.8
2017-Aug-15 18:00S 24°18' W 148°54'1212.0 140 / 271023.8 20.7 22.8
2017-Aug-15 17:00S 24°30' W 148°54'1212.0 140 / 261023.1 20.4 22.9
2017-Aug-15 16:00S 24°42' W 148°54'6 6.0 130 / 271022.4 20.2 22.8
2017-Aug-15 15:00S 24°48' W 148°54'1212.0 130 / 251022.0 20.2 22.5
2017-Aug-15 14:00S 25°00' W 148°54'6 6.0 130 / 251022.0 20.1 22.0
2017-Aug-15 13:00S 25°06' W 148°54'1212.0 130 / 241022.7 20.1 21.5
2017-Aug-15 12:00S 25°18' W 148°54'1212.0 130 / 231022.9 19.7 21.2
2017-Aug-15 11:00S 25°30' W 148°54'6 6.0 130 / 241022.7 19.2 21.1
2017-Aug-15 10:00S 25°36' W 148°54'1212.0 120 / 251023.0 19.5 21.1
2017-Aug-15 09:00S 25°48' W 148°54'1212.0 120 / 241023.2 19.5 21.0
2017-Aug-15 08:00S 26°00' W 148°54'6 6.0 130 / 241023.3 19.2 21.0
2017-Aug-15 07:00S 26°06' W 148°54'1212.0 140 / 241023.2 18.9 20.9
2017-Aug-15 06:00S 26°18' W 148°54'1212.0 140 / 251023.1 19.0 20.8
2017-Aug-15 05:00S 26°30' W 148°54'6 6.0 140 / 251022.8 19.1 21.0
2017-Aug-15 04:00S 26°36' W 148°54'1212.0 140 / 241022.5 19.0 21.4
2017-Aug-15 03:00S 26°48' W 148°54'6 6.0 140 / 251022.1 18.9 21.1
2017-Aug-15 02:00S 26°54' W 148°54'1212.0 140 / 251022.0 18.9 21.2
2017-Aug-15 01:00S 27°06' W 148°54'1212.0 140 / 241022.0 18.8 21.1
2017-Aug-15 00:00S 27°18' W 148°54'6 6.0 140 / 231022.1 18.6 21.1
2017-Aug-14 23:00S 27°24' W 148°54'6 6.0 140 / 241022.3 18.5 20.9
2017-Aug-14 22:00S 27°30' W 148°54'1212.0 140 / 231022.7 18.4 20.1
2017-Aug-14 21:00S 27°42' W 148°54'1212.0 140 / 231022.8 18.3 20.3
2017-Aug-14 20:00S 27°54' W 148°54'6 6.0 130 / 241022.7 17.9 20.0
2017-Aug-14 19:00S 28°00' W 148°54'1212.0 130 / 241022.4 17.6 19.4
2017-Aug-14 18:00S 28°12' W 148°54'1212.0 130 / 241021.8 17.6 19.4
2017-Aug-14 17:00S 28°24' W 148°54'6 6.0 130 / 231021.1 17.3 19.3
2017-Aug-14 16:00S 28°30' W 148°54'1212.0 120 / 211020.5 17.5 19.5
2017-Aug-14 15:00S 28°42' W 148°54'6 6.0 120 / 191019.8 17.1 19.5
2017-Aug-14 14:00S 28°48' W 148°54'1212.0 130 / 171019.4 17.1 19.5
2017-Aug-14 13:00S 29°00' W 148°54'1212.0 120 / 171019.4 17.1 19.4
2017-Aug-14 12:00S 29°12' W 148°54'6 6.0 120 / 171019.6 16.9 18.8
2017-Aug-14 11:00S 29°18' W 148°54'1212.0 120 / 161019.9 16.8 19.1
2017-Aug-14 10:00S 29°30' W 148°54'1212.0 110 / 181019.7 16.5 18.8
2017-Aug-14 09:00S 29°42' W 148°54'6 6.0 100 / 201019.6 16.4 18.8
2017-Aug-14 08:00S 29°48' W 148°54'1212.0 120 / 191020.3 16.3 18.4
2017-Aug-14 07:00S 30°00' W 148°54'1212.0 100 / 191020.0 15.9 18.1
2017-Aug-14 06:00S 30°12' W 148°54'6 6.0 100 / 201019.6 15.7 18.1
2017-Aug-14 05:00S 30°18' W 148°54'1212.0 090 / 231018.8 15.4 18.2
2017-Aug-14 04:00S 30°30' W 148°54'1212.0 070 / 211018.7 15.2 18.2
2017-Aug-14 03:00S 30°42' W 148°54'6 6.0 050 / 201018.2 15.7 18.2
2017-Aug-14 02:00S 30°48' W 148°54'1212.0 050 / 211017.6 15.8 18.1
2017-Aug-14 01:00S 31°00' W 148°54'6 6.0 060 / 221017.5 16.0 18.3
2017-Aug-14 00:00S 31°06' W 148°54'1212.0 060 / 211017.9 16.0 18.3
2017-Aug-13 23:00S 31°18' W 148°54'1212.0 060 / 201018.7 15.8 17.4
2017-Aug-13 22:00S 31°30' W 148°54'6 6.0 070 / 201019.7 16.7 17.4
2017-Aug-13 21:00S 31°36' W 148°54'1212.0 060 / 191020.5 16.6 17.5
2017-Aug-13 20:00S 31°48' W 148°54'1212.0 070 / 181020.9 16.3 16.6
2017-Aug-13 19:00S 32°00' W 148°54'6 6.0 070 / 161020.9 16.2 16.2
2017-Aug-13 18:00S 32°06' W 148°54'1212.0 070 / 141020.8 15.8 16.2
2017-Aug-13 17:00S 32°18' W 148°54'6 6.0 060 / 131020.7 15.3 16.2
2017-Aug-13 16:00S 32°24' W 148°54'0 0.0 030 / 141020.7 14.5 16.4
2017-Aug-13 15:00S 32°24' W 148°54'0 0.0 030 / 161020.6 15.1 16.5
2017-Aug-13 14:00S 32°24' W 148°54'0 0.0 030 / 161020.7 15.2 16.5
2017-Aug-13 13:00S 32°24' W 148°54'0 0.0 040 / 151021.0 15.2 16.5
2017-Aug-13 12:00S 32°24' W 148°54'8 7.9 040 / 171021.1 15.1 16.5
2017-Aug-13 11:00S 32°30' W 149°00'1211.8 030 / 181021.7 15.2 16.3
2017-Aug-13 10:00S 32°24' W 149°12'1211.8 030 / 181022.1 15.1 16.1
2017-Aug-13 09:00S 32°30' W 149°24'8 7.9 040 / 181022.1 15.0 16.2
2017-Aug-13 08:00S 32°24' W 149°30'6 6.0 040 / 171022.3 14.9 16.1
2017-Aug-13 07:00S 32°30' W 149°30'0 0.0 060 / 201021.8 14.6 16.1
2017-Aug-13 06:00S 32°30' W 149°30'6 6.0 060 / 201021.8 14.4 16.1
2017-Aug-13 05:00S 32°24' W 149°30'0 0.0 060 / 181022.1 14.3 16.1
2017-Aug-13 04:00S 32°24' W 149°30'1010.1 060 / 151022.4 14.5 16.1
2017-Aug-13 03:00S 32°24' W 149°42'1211.8 050 / 161022.6 14.5 16.2
2017-Aug-13 02:00S 32°30' W 149°54'1010.1 040 / 161022.7 14.6 16.4
2017-Aug-13 01:00S 32°30' W 150°06'5 5.1 040 / 151022.6 14.6 16.7
2017-Aug-13 00:00S 32°30' W 150°12'0 0.0 050 / 141023.2 14.8 16.7
2017-Aug-12 23:00S 32°30' W 150°12'0 0.0 060 / 141024.0 14.5 16.7
2017-Aug-12 22:00S 32°30' W 150°12'6 6.0 050 / 151024.8 14.4 16.7
2017-Aug-12 21:00S 32°24' W 150°12'0 0.0 060 / 151025.2 14.1 16.7
2017-Aug-12 20:00S 32°24' W 150°12'1211.8 070 / 151025.3 14.0 16.7
2017-Aug-12 19:00S 32°30' W 150°24'1010.1 070 / 171025.0 13.9 16.5
2017-Aug-12 18:00S 32°30' W 150°36'1010.1 060 / 161024.8 14.0 16.3
2017-Aug-12 17:00S 32°30' W 150°48'5 5.1 070 / 161024.7 13.9 16.6
2017-Aug-12 16:00S 32°30' W 150°54'6 6.0 070 / 141024.7 13.9 16.7
2017-Aug-12 15:00S 32°24' W 150°54'6 6.0 080 / 151024.2 13.7 16.7
2017-Aug-12 14:00S 32°30' W 150°54'0 0.0 080 / 151024.5 13.7 16.7
2017-Aug-12 13:00S 32°30' W 150°54'6 6.0 080 / 121025.4 13.8 16.7
2017-Aug-12 12:00S 32°24' W 150°54'1211.8 070 / 101026.2 13.9 16.7
2017-Aug-12 11:00S 32°30' W 151°06'1211.8 080 / 111026.6 13.8 16.7
2017-Aug-12 10:00S 32°24' W 151°18'1211.8 060 / 121027.0 13.6 17.1
2017-Aug-12 09:00S 32°30' W 151°30'0 0.0 060 / 111027.4 13.6 17.3
2017-Aug-12 08:00S 32°30' W 151°30'6 6.0 070 / 101027.8 13.5 17.4
2017-Aug-12 07:00S 32°24' W 151°30'6 6.0 070 / 111027.5 13.4 17.4
2017-Aug-12 06:00S 32°30' W 151°30'0 0.0 080 / 111027.5 13.2 17.4
2017-Aug-12 05:00S 32°30' W 151°30'5 5.1 080 / 81027.7 13.2 17.3
2017-Aug-12 04:00S 32°30' W 151°36'5 5.1 080 / 91027.4 13.1 17.3
2017-Aug-12 03:00S 32°30' W 151°42'1010.1 090 / 101026.8 13.1 17.3
2017-Aug-12 02:00S 32°30' W 151°54'1010.1 090 / 131026.4 13.4 17.5
2017-Aug-12 01:00S 32°30' W 152°06'5 2.5 090 / 151026.5 13.4 17.4
2017-Aug-11 23:00S 32°30' W 152°12'0 0.0 090 / 171027.1 13.3 17.1
2017-Aug-11 22:00S 32°30' W 152°12'0 0.0 080 / 131028.3 13.3 17.1
2017-Aug-11 21:00S 32°30' W 152°12'6 6.0 080 / 131028.7 13.3 17.1
2017-Aug-11 20:00S 32°24' W 152°12'16 8.2 090 / 131029.0 13.1 17.1
2017-Aug-11 18:00S 32°30' W 152°30'1010.1 090 / 111029.1 13.0 16.9
2017-Aug-11 17:00S 32°30' W 152°42'1211.8 100 / 101029.0 13.1 16.9
2017-Aug-11 16:00S 32°24' W 152°54'0 0.0 100 / 111028.8 13.1 17.0
2017-Aug-11 15:00S 32°24' W 152°54'0 0.0 100 / 141028.2 13.2 17.0
2017-Aug-11 14:00S 32°24' W 152°54'0 0.0 100 / 101028.5 13.3 17.0
2017-Aug-11 13:00S 32°24' W 152°54'0 0.0 110 / 111028.6 13.2 17.0
2017-Aug-11 12:00S 32°24' W 152°54'1010.1 100 / 121028.7 13.2 16.9
2017-Aug-11 11:00S 32°24' W 153°06'1211.8 100 / 111028.8 13.1 17.0
2017-Aug-11 10:00S 32°30' W 153°18'1010.1 100 / 131028.6 13.1 17.0
2017-Aug-11 09:00S 32°30' W 153°30'6 6.0 110 / 131029.0 13.2 17.0
2017-Aug-11 08:00S 32°24' W 153°30'0 0.0 100 / 131029.3 13.1 17.0
2017-Aug-11 07:00S 32°24' W 153°30'0 0.0 110 / 121029.0 13.1 17.0
2017-Aug-11 06:00S 32°24' W 153°30'0 0.0 110 / 131028.6 13.1 17.0
2017-Aug-11 05:00S 32°24' W 153°30'5 5.1 110 / 141028.1 13.4 17.0
2017-Aug-11 04:00S 32°24' W 153°36'1211.8 130 / 161027.5 13.3 17.1
2017-Aug-11 03:00S 32°30' W 153°48'1211.8 140 / 141027.2 13.6 17.3
2017-Aug-11 02:00S 32°24' W 154°00'1211.8 140 / 151026.9 13.6 17.2
2017-Aug-11 01:00S 32°30' W 154°12'6 6.0 140 / 161026.6 14.2 16.9
2017-Aug-11 00:00S 32°24' W 154°12'0 0.0 150 / 171026.7 14.5 16.9
2017-Aug-10 23:00S 32°24' W 154°12'0 0.0 140 / 191026.8 14.8 16.9
2017-Aug-10 22:00S 32°24' W 154°12'0 0.0 140 / 201027.1 14.9 16.9
2017-Aug-10 21:00S 32°24' W 154°12'1010.1 150 / 191026.9 13.8 16.9
2017-Aug-10 20:00S 32°24' W 154°24'1010.1 210 / 151026.9 15.2 16.9
2017-Aug-10 19:00S 32°24' W 154°36'1010.1 210 / 141026.8 15.2 17.0
2017-Aug-10 18:00S 32°24' W 154°48'5 5.1 210 / 161026.3 15.1 16.8
2017-Aug-10 17:00S 32°24' W 154°54'0 0.0 210 / 181025.7 15.0 16.9
2017-Aug-10 16:00S 32°24' W 154°54'0 0.0 220 / 181025.2 15.1 16.9
2017-Aug-10 15:00S 32°24' W 154°54'0 0.0 220 / 181024.8 15.2 16.9
2017-Aug-10 14:00S 32°24' W 154°54'5 5.1 230 / 171024.6 15.3 16.9
2017-Aug-10 13:00S 32°24' W 155°00'1010.1 230 / 161024.8 15.3 17.0
2017-Aug-10 12:00S 32°24' W 155°12'1211.8 230 / 161025.0 15.3 17.0
2017-Aug-10 11:00S 32°30' W 155°24'5 5.1 230 / 141025.2 15.2 16.9
2017-Aug-10 10:00S 32°30' W 155°30'5 5.1 230 / 131025.4 15.0 16.5
2017-Aug-10 09:00S 32°30' W 155°36'0 0.0 230 / 151025.6 15.0 16.5
2017-Aug-10 08:00S 32°30' W 155°36'0 0.0 230 / 141025.4 14.8 16.5
2017-Aug-10 07:00S 32°30' W 155°36'6 6.0 240 / 131025.0 14.8 16.5
2017-Aug-10 06:00S 32°24' W 155°36'5 5.1 240 / 121024.8 14.8 16.5
2017-Aug-10 05:00S 32°24' W 155°42'1010.1 240 / 131024.8 14.9 16.7
2017-Aug-10 04:00S 32°24' W 155°54'1211.8 230 / 131024.7 14.9 16.8
2017-Aug-10 03:00S 32°30' W 156°06'   230 / 121024.6 15.0 17.4

Dump ship's entire track history